Airfield :
LOGIN :

Register | Disclaimer

   EN    FR    IT 

 










Legend :    VFR   Marginal VFR   IFR   Intensive IFR   Very Intensive IFR
Visi :
Ceiling :
>= 8 km
>= 3000ft
5 to 8 km
1000 to 3000 ft
1500m to 5 km
500 to 1000 ft
800 to 1500m
200 to 500 ft
< 800m
< 200 ft
Symbols :   Thunderstorms  Fog  Heavy snow  Heavy precipitations  Wind > 20 kt
SIGMETs :     Misc.  Thunderstorms  Icing  Turbulence  Mountain Waves  Volcanic Ashes






- Airport Elevation : 1300 ft
- IATA code : LIG


LFBL - Limoges

CURRENT METAR :
  • 231300Z AUTO 02010KT 320V050 9999 FEW038 BKN072 08/M01 Q1018 NOSIG

EXPIRED METARs :
  • 231230Z AUTO 02011KT 340V050 9999 FEW024 BKN038 BKN072 07/M01 Q1018 NOSIG
  • 231200Z AUTO 01009KT 320V050 9999 FEW036 BKN052 BKN064 07/M02 Q1018 NOSIG
  • 231130Z AUTO 02010KT 330V060 9999 FEW034 SCT064 BKN074 07/M03 Q1018 NOSIG
  • 231100Z AUTO 34008KT 290V050 9999 FEW024 SCT033 BKN040 06/00 Q1019 NOSIG
  • 231030Z AUTO 01007KT 310V050 9999 SCT030 BKN037 BKN052 07/M00 Q1019 NOSIG
  • 231000Z AUTO 01008KT 330V040 9999 SCT027 BKN033 BKN043 06/M01 Q1019 NOSIG
  • 230930Z AUTO 03012KT 350V060 9999 BKN025 BKN033 06/01 Q1019 NOSIG
  • 230900Z AUTO 01010KT 320V050 9999 SCT019 BKN024 06/01 Q1019 NOSIG
  • 230830Z AUTO 03011KT 9999 FEW016 06/01 Q1019 NOSIG

TAF TAF LFBL
Valid from the 23 at 12:00 until the 24 at 12:00 UTC


231100Z 2312/2412 36005KT CAVOK
TEMPO 2312/2318 01010G20KT
FM240100 30005KT 9999 BKN035
TEMPO 2405/2409 1500 -RA BKN002
FM240900 34010KT 8000 SCT020
TEMPO 2410/2412 4500 -SHRA BKN015TCU
ATIS : +33 5 55 48 40 37



MET'MAP, your aeronautical weather chart ! - Copyright ORBIFLY December 2007 - Disclaimer

ORBIFLY MET'MAP TEAM :

Programming & Development : Alexandra Zaïnal
Original concept : Baudouin d'Aumeries
Technical & hardware support : Manuel Goepfert
Assistance : Marc-Olivier Méhu




SOURCES & CREDITS :

   NOAA